EDT,Max TemperatureF,Mean TemperatureF,Min TemperatureF,Max Dew PointF,MeanDew PointF,Min DewpointF,Max Humidity, Mean Humidity, Min Humidity, Max Sea Level PressureIn, Mean Sea Level PressureIn, Min Sea Level PressureIn, Max VisibilityMiles, Mean VisibilityMiles, Min VisibilityMiles, Max Wind SpeedMPH, Mean Wind SpeedMPH, Max Gust SpeedMPH,PrecipitationIn, CloudCover, Events, WindDirDegrees
2011-10-1,73,64,57,68,62,55,100,88,75,29.73,29.64,29.56,10,9,4,13,6,,0.00,7,Rain,344
2011-10-2,69,62,54,61,54,48,100,80,57,29.90,29.81,29.73,10,10,5,13,8,23,0.00,6,Rain,322
2011-10-3,64,58,53,55,52,44,100,87,50,30.07,30.00,29.91,10,8,3,13,4,18,0.00,7,Rain,19
2011-10-4,64,56,48,56,52,48,100,89,63,29.99,29.94,29.89,10,8,1,14,5,22,0.00,5,Rain,334
2011-10-5,70,58,44,52,45,32,93,62,37,30.27,30.03,29.92,10,10,10,23,10,28,0.00,0,,329
2011-10-6,66,50,37,41,34,27,93,58,25,30.34,30.29,30.24,10,10,10,14,5,21,0.00,0,,333
2011-10-7,63,51,41,45,38,33,93,64,35,30.47,30.43,30.35,10,10,10,9,6,,0.00,0,,353
2011-10-8,72,60,48,58,51,44,96,73,47,30.46,30.41,30.36,10,10,10,15,4,,0.00,0,,254
2011-10-9,86,67,50,64,56,50,100,75,32,30.37,30.31,30.25,10,10,9,10,3,,0.00,0,,325
2011-10-10,86,66,50,64,56,50,100,86,39,30.24,30.18,30.10,10,7,0,9,2,,0.00,0,Fog,261
2011-10-11,70,64,57,59,51,42,84,64,40,30.22,30.19,30.14,10,10,10,13,7,,0.00,0,,62
2011-10-12,62,58,54,58,52,48,97,81,65,30.20,30.12,29.99,10,9,4,14,10,,0.01,4,Rain,46
2011-10-13,70,64,59,64,60,57,100,92,81,29.97,29.83,29.75,10,8,2,15,10,,0.18,8,Rain,40
2011-10-14,70,66,61,68,65,52,100,95,72,29.73,29.56,29.37,10,6,1,26,13,33,0.64,7,Rain,142
2011-10-15,66,62,59,53,46,36,72,55,38,29.73,29.61,29.47,10,10,10,23,18,33,0.00,4,Rain,250
2011-10-16,64,62,59,55,42,35,73,49,38,29.85,29.77,29.69,10,10,10,24,18,36,0.00,3,,247
2011-10-17,64,60,57,58,47,38,81,60,38,29.77,29.70,29.61,10,10,10,20,14,26,0.00,2,,248
2011-10-18,66,58,52,51,45,34,93,62,42,29.94,29.86,29.77,10,10,10,14,7,21,0.00,1,,252
2011-10-19,63,58,54,63,59,52,100,92,81,29.92,29.71,29.50,10,6,2,29,11,40,0.63,7,Rain,43
2011-10-20,68,64,59,67,58,44,100,84,55,29.70,29.51,29.44,10,7,2,30,13,39,0.83,6,Rain,213
2011-10-21,60,56,51,45,43,41,71,61,55,29.99,29.86,29.72,10,10,10,20,15,32,0.00,3,,257
2011-10-22,59,52,43,46,43,40,89,74,59,30.09,30.03,29.99,10,10,10,13,6,,0.00,3,,289
2011-10-23,57,48,39,43,40,38,93,73,51,30.15,30.12,30.08,10,10,10,10,5,,0.00,5,,343
2011-10-24,61,49,37,50,44,37,97,79,60,30.15,30.07,29.94,10,10,7,15,6,,0.00,1,,201
2011-10-25,62,54,46,51,40,33,93,62,35,30.03,29.96,29.91,10,10,10,17,8,28,0.00,1,,304
2011-10-26,57,50,44,48,43,35,89,73,57,30.04,29.88,29.76,10,10,10,8,4,,0.00,6,Rain,28
2011-10-27,51,44,36,49,43,34,100,93,83,29.87,29.68,29.60,10,6,2,20,8,28,0.50,8,Rain,13
2011-10-28,50,41,34,34,28,22,89,63,35,30.27,30.14,29.92,10,10,10,17,11,21,0.00,1,,339
2011-10-29,43,38,33,32,31,25,93,81,51,30.25,29.92,29.68,10,5,1,26,13,40,0.69,8,Rain-Snow,12
2011-10-30,48,40,33,32,30,26,96,78,44,30.31,29.95,29.71,10,8,1,28,18,43,0.02,4,Snow,326
2011-10-31,52,40,28,32,30,27,92,68,45,30.42,30.38,30.31,10,10,10,8,4,,0.00,0,,58